sensor_id;sensor_type;location;lat;lon;timestamp;temperature;humidity
64670;DHT22;51080;51.690;5.174;2022-11-25T02:30:22;9.10;93.90
64670;DHT22;51080;51.690;5.174;2022-11-25T04:43:53;8.70;91.30
64670;DHT22;51080;51.690;5.174;2022-11-25T04:49:54;8.60;90.90
64670;DHT22;51080;51.690;5.174;2022-11-25T05:02:20;8.40;91.80
64670;DHT22;51080;51.690;5.174;2022-11-25T05:08:15;8.40;91.20
64670;DHT22;51080;51.690;5.174;2022-11-25T05:20:42;8.20;91.60
64670;DHT22;51080;51.690;5.174;2022-11-25T06:05:05;8.20;92.60
64670;DHT22;51080;51.690;5.174;2022-11-25T06:11:14;8.20;92.30
64670;DHT22;51080;51.690;5.174;2022-11-25T06:17:18;8.20;92.50
64670;DHT22;51080;51.690;5.174;2022-11-25T06:23:21;8.20;92.60
64670;DHT22;51080;51.690;5.174;2022-11-25T06:29:24;8.10;92.50
64670;DHT22;51080;51.690;5.174;2022-11-25T06:35:28;8.10;92.60
64670;DHT22;51080;51.690;5.174;2022-11-25T06:41:16;8.00;92.40
64670;DHT22;51080;51.690;5.174;2022-11-25T06:47:05;7.90;92.40
64670;DHT22;51080;51.690;5.174;2022-11-25T06:52:52;7.80;92.60
64670;DHT22;51080;51.690;5.174;2022-11-25T06:58:44;7.80;92.60
64670;DHT22;51080;51.690;5.174;2022-11-25T07:04:33;7.70;92.70
64670;DHT22;51080;51.690;5.174;2022-11-25T07:10:24;7.70;92.50
64670;DHT22;51080;51.690;5.174;2022-11-25T07:16:12;7.50;92.40
64670;DHT22;51080;51.690;5.174;2022-11-25T07:21:57;7.50;92.00
64670;DHT22;51080;51.690;5.174;2022-11-25T07:27:42;7.40;92.70
64670;DHT22;51080;51.690;5.174;2022-11-25T07:39:47;7.30;93.10
64670;DHT22;51080;51.690;5.174;2022-11-25T07:45:32;7.30;93.20
64670;DHT22;51080;51.690;5.174;2022-11-25T07:51:24;7.30;93.30
64670;DHT22;51080;51.690;5.174;2022-11-25T07:57:08;7.20;93.30
64670;DHT22;51080;51.690;5.174;2022-11-25T08:02:54;7.20;93.20
64670;DHT22;51080;51.690;5.174;2022-11-25T08:08:40;7.20;93.40
64670;DHT22;51080;51.690;5.174;2022-11-25T08:14:24;7.20;93.40
64670;DHT22;51080;51.690;5.174;2022-11-25T08:20:09;7.30;93.40
64670;DHT22;51080;51.690;5.174;2022-11-25T08:25:53;7.30;93.20
64670;DHT22;51080;51.690;5.174;2022-11-25T08:31:38;7.30;92.90
64670;DHT22;51080;51.690;5.174;2022-11-25T08:37:22;7.30;93.00
64670;DHT22;51080;51.690;5.174;2022-11-25T08:43:06;7.40;92.80
64670;DHT22;51080;51.690;5.174;2022-11-25T08:48:51;7.50;92.70
64670;DHT22;51080;51.690;5.174;2022-11-25T08:54:35;7.60;92.30
64670;DHT22;51080;51.690;5.174;2022-11-25T09:00:21;7.60;92.10
64670;DHT22;51080;51.690;5.174;2022-11-25T09:06:07;7.70;92.00
64670;DHT22;51080;51.690;5.174;2022-11-25T09:11:51;7.80;91.60
64670;DHT22;51080;51.690;5.174;2022-11-25T09:17:36;7.90;91.10
64670;DHT22;51080;51.690;5.174;2022-11-25T09:23:21;8.00;91.00
64670;DHT22;51080;51.690;5.174;2022-11-25T09:29:07;8.00;91.00
64670;DHT22;51080;51.690;5.174;2022-11-25T09:34:51;8.10;91.00
64670;DHT22;51080;51.690;5.174;2022-11-25T09:40:49;8.20;90.90
64670;DHT22;51080;51.690;5.174;2022-11-25T09:47:00;8.30;90.00
64670;DHT22;51080;51.690;5.174;2022-11-25T10:05:36;8.60;88.40
64670;DHT22;51080;51.690;5.174;2022-11-25T10:11:45;8.70;87.40
64670;DHT22;51080;51.690;5.174;2022-11-25T10:23:34;8.90;87.20
64670;DHT22;51080;51.690;5.174;2022-11-25T10:30:02;9.00;85.70
64670;DHT22;51080;51.690;5.174;2022-11-25T10:35:59;9.20;85.00
64670;DHT22;51080;51.690;5.174;2022-11-25T10:41:59;9.20;85.10
64670;DHT22;51080;51.690;5.174;2022-11-25T11:00:06;9.50;83.40
64670;DHT22;51080;51.690;5.174;2022-11-25T11:05:52;9.60;83.10
64670;DHT22;51080;51.690;5.174;2022-11-25T11:11:48;9.70;82.40
64670;DHT22;51080;51.690;5.174;2022-11-25T11:17:34;9.70;82.60
64670;DHT22;51080;51.690;5.174;2022-11-25T11:23:19;9.80;83.10
64670;DHT22;51080;51.690;5.174;2022-11-25T11:29:12;10.00;81.70
64670;DHT22;51080;51.690;5.174;2022-11-25T11:35:07;10.00;80.70
64670;DHT22;51080;51.690;5.174;2022-11-25T11:47:29;10.20;80.70
64670;DHT22;51080;51.690;5.174;2022-11-25T11:53:50;10.30;81.00
64670;DHT22;51080;51.690;5.174;2022-11-25T11:59:45;10.40;81.00
64670;DHT22;51080;51.690;5.174;2022-11-25T12:05:34;10.70;79.80
64670;DHT22;51080;51.690;5.174;2022-11-25T12:11:24;10.90;80.10
64670;DHT22;51080;51.690;5.174;2022-11-25T12:17:26;11.00;78.50
64670;DHT22;51080;51.690;5.174;2022-11-25T12:23:20;11.10;78.70
64670;DHT22;51080;51.690;5.174;2022-11-25T12:35:15;11.30;78.20
64670;DHT22;51080;51.690;5.174;2022-11-25T12:41:08;11.20;78.20
64670;DHT22;51080;51.690;5.174;2022-11-25T12:46:55;11.20;79.50
64670;DHT22;51080;51.690;5.174;2022-11-25T12:52:54;11.10;78.30
64670;DHT22;51080;51.690;5.174;2022-11-25T12:59:13;11.10;79.00
64670;DHT22;51080;51.690;5.174;2022-11-25T13:17:35;11.20;79.80
64670;DHT22;51080;51.690;5.174;2022-11-25T13:29:51;11.30;79.80
64670;DHT22;51080;51.690;5.174;2022-11-25T13:35:29;11.20;79.80
64670;DHT22;51080;51.690;5.174;2022-11-25T13:47:38;11.00;81.40
64670;DHT22;51080;51.690;5.174;2022-11-25T13:53:31;10.90;81.30
64670;DHT22;51080;51.690;5.174;2022-11-25T13:59:18;10.90;81.30
64670;DHT22;51080;51.690;5.174;2022-11-25T14:23:47;10.90;81.80
64670;DHT22;51080;51.690;5.174;2022-11-25T14:29:38;10.90;81.50
64670;DHT22;51080;51.690;5.174;2022-11-25T14:35:36;10.80;82.10
64670;DHT22;51080;51.690;5.174;2022-11-25T14:41:38;10.60;82.30
64670;DHT22;51080;51.690;5.174;2022-11-25T14:47:55;10.50;82.50
64670;DHT22;51080;51.690;5.174;2022-11-25T14:53:45;10.40;82.90
64670;DHT22;51080;51.690;5.174;2022-11-25T14:59:30;10.30;83.70
64670;DHT22;51080;51.690;5.174;2022-11-25T15:05:21;10.20;84.10
64670;DHT22;51080;51.690;5.174;2022-11-25T15:11:17;10.20;84.10
64670;DHT22;51080;51.690;5.174;2022-11-25T15:17:29;10.20;84.50
64670;DHT22;51080;51.690;5.174;2022-11-25T15:23:19;10.00;84.60
64670;DHT22;51080;51.690;5.174;2022-11-25T15:29:40;9.90;84.70
64670;DHT22;51080;51.690;5.174;2022-11-25T15:35:26;9.70;85.60
64670;DHT22;51080;51.690;5.174;2022-11-25T15:41:29;9.70;85.40
64670;DHT22;51080;51.690;5.174;2022-11-25T15:47:25;9.60;86.10
64670;DHT22;51080;51.690;5.174;2022-11-25T15:53:22;9.50;85.80
64670;DHT22;51080;51.690;5.174;2022-11-25T16:05:55;9.20;86.50
64670;DHT22;51080;51.690;5.174;2022-11-25T16:11:45;9.10;86.90
64670;DHT22;51080;51.690;5.174;2022-11-25T16:17:29;9.00;86.70
64670;DHT22;51080;51.690;5.174;2022-11-25T16:23:19;8.90;87.30
64670;DHT22;51080;51.690;5.174;2022-11-25T16:35:26;8.70;86.70
64670;DHT22;51080;51.690;5.174;2022-11-25T16:41:30;8.60;88.50
64670;DHT22;51080;51.690;5.174;2022-11-25T16:47:34;8.60;88.70
64670;DHT22;51080;51.690;5.174;2022-11-25T16:53:28;8.70;89.70
64670;DHT22;51080;51.690;5.174;2022-11-25T16:59:36;8.70;88.90
64670;DHT22;51080;51.690;5.174;2022-11-25T17:05:41;8.60;89.40
64670;DHT22;51080;51.690;5.174;2022-11-25T17:11:48;8.60;89.20
64670;DHT22;51080;51.690;5.174;2022-11-25T17:17:45;8.60;89.70
64670;DHT22;51080;51.690;5.174;2022-11-25T17:23:50;8.60;90.40
64670;DHT22;51080;51.690;5.174;2022-11-25T17:29:55;8.60;89.70
64670;DHT22;51080;51.690;5.174;2022-11-25T17:35:59;8.50;90.20
64670;DHT22;51080;51.690;5.174;2022-11-25T17:42:04;8.50;89.90
64670;DHT22;51080;51.690;5.174;2022-11-25T17:48:13;8.50;89.70
64670;DHT22;51080;51.690;5.174;2022-11-25T17:54:17;8.40;89.70
64670;DHT22;51080;51.690;5.174;2022-11-25T18:00:22;8.30;89.60
64670;DHT22;51080;51.690;5.174;2022-11-25T18:06:26;8.30;89.70
64670;DHT22;51080;51.690;5.174;2022-11-25T18:12:30;8.30;90.30
64670;DHT22;51080;51.690;5.174;2022-11-25T18:18:34;8.20;89.20
64670;DHT22;51080;51.690;5.174;2022-11-25T18:24:38;8.10;89.70
64670;DHT22;51080;51.690;5.174;2022-11-25T18:30:41;8.10;89.70
64670;DHT22;51080;51.690;5.174;2022-11-25T18:36:46;8.00;89.00
64670;DHT22;51080;51.690;5.174;2022-11-25T18:42:55;7.90;89.10
64670;DHT22;51080;51.690;5.174;2022-11-25T18:49:00;7.80;89.20
64670;DHT22;51080;51.690;5.174;2022-11-25T18:55:05;7.80;89.90
64670;DHT22;51080;51.690;5.174;2022-11-25T19:01:11;7.70;90.30
64670;DHT22;51080;51.690;5.174;2022-11-25T19:07:14;7.70;90.60
64670;DHT22;51080;51.690;5.174;2022-11-25T19:13:27;7.70;90.10
64670;DHT22;51080;51.690;5.174;2022-11-25T19:19:33;7.60;90.10
64670;DHT22;51080;51.690;5.174;2022-11-25T19:25:37;7.60;89.90
64670;DHT22;51080;51.690;5.174;2022-11-25T19:31:41;7.50;90.00
64670;DHT22;51080;51.690;5.174;2022-11-25T19:37:44;7.50;89.80
64670;DHT22;51080;51.690;5.174;2022-11-25T19:43:48;7.50;90.20
64670;DHT22;51080;51.690;5.174;2022-11-25T19:49:55;7.40;90.90
64670;DHT22;51080;51.690;5.174;2022-11-25T19:56:01;7.40;89.80
64670;DHT22;51080;51.690;5.174;2022-11-25T20:02:20;7.40;90.70
64670;DHT22;51080;51.690;5.174;2022-11-25T20:08:27;7.40;91.40
64670;DHT22;51080;51.690;5.174;2022-11-25T20:14:31;7.50;91.30
64670;DHT22;51080;51.690;5.174;2022-11-25T20:20:37;7.50;90.40
64670;DHT22;51080;51.690;5.174;2022-11-25T20:32:47;7.40;90.60
64670;DHT22;51080;51.690;5.174;2022-11-25T20:38:49;7.50;91.20
64670;DHT22;51080;51.690;5.174;2022-11-25T20:44:35;7.40;91.10
64670;DHT22;51080;51.690;5.174;2022-11-25T20:50:28;7.40;90.90
64670;DHT22;51080;51.690;5.174;2022-11-25T20:56:25;7.40;91.30
64670;DHT22;51080;51.690;5.174;2022-11-25T21:02:19;7.30;90.30
64670;DHT22;51080;51.690;5.174;2022-11-25T21:08:13;7.30;90.60
64670;DHT22;51080;51.690;5.174;2022-11-25T21:14:14;7.20;90.40
64670;DHT22;51080;51.690;5.174;2022-11-25T21:20:10;7.20;91.40
64670;DHT22;51080;51.690;5.174;2022-11-25T21:26:13;7.40;91.40
64670;DHT22;51080;51.690;5.174;2022-11-25T21:32:16;7.40;90.70
64670;DHT22;51080;51.690;5.174;2022-11-25T21:38:13;7.30;89.70
64670;DHT22;51080;51.690;5.174;2022-11-25T21:44:05;7.20;90.70
64670;DHT22;51080;51.690;5.174;2022-11-25T21:49:59;7.40;90.80
64670;DHT22;51080;51.690;5.174;2022-11-25T21:55:52;7.30;90.50
64670;DHT22;51080;51.690;5.174;2022-11-25T22:01:50;7.30;90.10
64670;DHT22;51080;51.690;5.174;2022-11-25T22:07:39;7.20;88.90
64670;DHT22;51080;51.690;5.174;2022-11-25T22:13:32;7.00;88.40
64670;DHT22;51080;51.690;5.174;2022-11-25T22:19:21;6.80;88.30
64670;DHT22;51080;51.690;5.174;2022-11-25T22:25:12;6.70;88.50
64670;DHT22;51080;51.690;5.174;2022-11-25T22:31:02;6.50;89.50
64670;DHT22;51080;51.690;5.174;2022-11-25T22:36:51;6.50;89.30
64670;DHT22;51080;51.690;5.174;2022-11-25T22:42:39;6.40;89.10
64670;DHT22;51080;51.690;5.174;2022-11-25T22:48:36;6.30;89.30
64670;DHT22;51080;51.690;5.174;2022-11-25T22:54:24;6.20;89.50
64670;DHT22;51080;51.690;5.174;2022-11-25T23:00:17;6.20;90.10
64670;DHT22;51080;51.690;5.174;2022-11-25T23:06:09;6.10;90.40
64670;DHT22;51080;51.690;5.174;2022-11-25T23:11:57;6.20;91.20
64670;DHT22;51080;51.690;5.174;2022-11-25T23:17:53;6.20;91.20
64670;DHT22;51080;51.690;5.174;2022-11-25T23:23:44;6.30;90.80
64670;DHT22;51080;51.690;5.174;2022-11-25T23:29:32;6.20;90.70
64670;DHT22;51080;51.690;5.174;2022-11-25T23:35:28;6.10;90.30
64670;DHT22;51080;51.690;5.174;2022-11-25T23:41:26;6.10;90.70
64670;DHT22;51080;51.690;5.174;2022-11-25T23:47:17;6.10;90.90
64670;DHT22;51080;51.690;5.174;2022-11-25T23:53:16;6.10;90.30
64670;DHT22;51080;51.690;5.174;2022-11-25T23:59:12;6.10;90.30
